Indianola, Iowa
Current Conditions -  °F | °C
As of 7:54 AM on Tuesday 27 Jan 2015 (Local Time) from KDSM Reporting Station
Few Clouds Few Clouds  
Wind Chill: -1°   Ceiling: Unl
Heat Index: -1°   Visibility: 8mi
Dew Point: -3°   Wind: 3mph
Humidity: 88%   Direction: 320°NW
Pressure: 30.14"   Gusts: NA
Location:  41.36°N, 93.56°W
Report Text: KDSM 271354Z 32003KT 8SM FEW250 M01/M03 A3014 RMK AO2 SLP212 T10111028
Loading
Personal Weather Stations






























Interactive Weather Map New forecast layout! Learn more

10-Day Weather Forecast

Advertisements
Track Severe Weather on mobile